Northport, WA

1:31 AM PDT on September 03, 2015 (GMT -0700)
Squaw Creek Ranch Weather Station | | Change Station
CLOSE
Current Station
Personal Weather Station
Location: Northport, WA
Elevation: 1457 ft
Nearby Weather Stations

Elev 1457 ft 48.90 °N, 117.83 °W | Updated 30 seconds ago

Partly Cloudy
Partly Cloudy
47.1 °F
Feels Like 46 °F
N
3.8
Wind Variable Wind from NW
Gusts 6.0 mph

Today
High -- | Low -- °F
--% Chance of Precip.
Yesterday
High -- | Low -- °F
Precip. -- in
6:10 AM 7:29 PM
Waning Gibbous, 72% visible
Pressure 29.84 in
Visibility 10.0 miles
Clouds Few 7000 ft
Scattered Clouds 9000 ft
Mostly Cloudy 11000 ft
Windchill 46 °F
Dew Point 47 °F
Humidity 98%
Rainfall 0.00 in
Snow Depth Not available.
UV 0.0 out of 12
Pollen 8.00 out of 12
Air Quality Not available.
Flu Activity Not available.
METAR KDEW 030753Z AUTO 00000KT 10SM FEW070 SCT090 BKN110 09/06 A2986 RMK AO2 SLP105 T00940056 402220078
Pressure 29.84 in
Visibility 10.0 miles
Clouds Few 7000 ft
Scattered Clouds 9000 ft
Mostly Cloudy 11000 ft
Windchill 46 °F
Dew Point 47 °F
Humidity 98%
Rainfall 0.00 in
Snow Depth Not available.
UV 0.0 out of 12
Pollen 8.00 out of 12
Air Quality Not available.
Flu Activity Not available.
METAR KDEW 030753Z AUTO 00000KT 10SM FEW070 SCT090 BKN110 09/06 A2986 RMK AO2 SLP105 T00940056 402220078

10-Day Weather Forecast

×

Almanac

Astronomy

Sep. 03, 2015 Rise Set
Actual Time
Civil Twilight
Nautical Twilight
Astronomical Twilight
Moon
Length of Visible Light
Length of Day
Tomorrow will be .
, % of the Moon is Illuminated

Today's Extremes

State Highs State Lows

Community

WunderPhotos

Upload Photos

1,851,919 photos uploaded!

WunderBlogs® & News

Nearby

Air Quality

  Air Quality AQ Index Pollutant
Not available.

Snow Depth

Station Depth Elevation

Earthquake Activity

City Distance Mag. Time & Date
Minimum magnitude displayed is 2.5.

Coastal Water Temperatures

Place Temperature

Stations

Nearby Weather Stations

Station Location Temp. Windchill Dew Point Humidity Wind Precip. Elev Updated Type